Time;durP1;ratioP1;P1;durP2;ratioP2;P2;SDS_P1;SDS_P2;PMS_P1;PMS_P2;Temp;Humidity;BMP_temperature;BMP_pressure;BME280_temperature;BME280_humidity;BME280_pressure;Samples;Min_cycle;Max_cycle;Signal;HPM_P1;HPM_P2
2021/04/14 00:00:07;;;;;;;10.70;7.60;;;1.50;88.80;;;;;;5079628;28;20427;-41
2021/04/14 00:02:34;;;;;;;10.07;7.73;;;1.50;88.90;;;;;;5079578;28;20209;-41
2021/04/14 00:05:00;;;;;;;11.87;8.30;;;1.50;89.10;;;;;;5079981;28;20437;-42
2021/04/14 00:07:26;;;;;;;10.13;7.60;;;1.40;89.40;;;;;;5079539;28;20565;-42
2021/04/14 00:09:52;;;;;;;9.67;7.83;;;1.40;89.70;;;;;;5079987;28;20897;-40
2021/04/14 00:12:18;;;;;;;10.00;6.73;;;1.30;90.00;;;;;;5079887;28;20419;-41
2021/04/14 00:14:45;;;;;;;9.10;7.40;;;1.30;90.10;;;;;;5079661;28;20275;-41
2021/04/14 00:17:10;;;;;;;8.67;6.20;;;1.30;90.20;;;;;;5079284;28;20839;-41
2021/04/14 00:19:36;;;;;;;8.83;7.43;;;1.30;90.40;;;;;;5079617;28;20493;-42
2021/04/14 00:22:03;;;;;;;8.13;6.70;;;1.20;90.40;;;;;;5079139;28;20583;-39
2021/04/14 00:24:31;;;;;;;7.57;6.77;;;1.20;90.50;;;;;;5079399;28;20788;-41
2021/04/14 00:26:57;;;;;;;9.10;6.83;;;1.10;90.40;;;;;;5079155;28;20459;-40
2021/04/14 00:29:23;;;;;;;9.20;6.47;;;1.00;90.60;;;;;;5079375;28;20436;-40
2021/04/14 00:31:49;;;;;;;7.80;7.10;;;1.00;90.80;;;;;;5079549;28;20192;-41
2021/04/14 00:34:18;;;;;;;8.60;6.43;;;1.00;90.90;;;;;;5078388;28;20521;-41
2021/04/14 00:36:45;;;;;;;12.17;7.50;;;0.90;90.70;;;;;;5079168;28;20427;-41
2021/04/14 00:39:22;;;;;;;10.67;7.03;;;0.90;90.80;;;;;;5079006;28;20434;-42
2021/04/14 00:41:49;;;;;;;8.60;6.13;;;0.90;91.00;;;;;;5078443;28;20634;-42
2021/04/14 00:44:15;;;;;;;11.83;6.97;;;0.80;91.00;;;;;;5079539;28;20434;-40
2021/04/14 00:46:41;;;;;;;7.63;6.53;;;0.80;91.10;;;;;;5078919;28;20467;-42
2021/04/14 00:49:07;;;;;;;7.87;6.00;;;0.80;91.20;;;;;;5078225;28;20427;-42
2021/04/14 00:51:34;;;;;;;8.13;6.30;;;0.70;91.30;;;;;;5078980;28;20411;-42
2021/04/14 00:54:01;;;;;;;10.77;6.50;;;0.70;91.40;;;;;;5078748;28;20403;-40
2021/04/14 00:56:27;;;;;;;10.63;6.17;;;0.70;91.60;;;;;;5078344;28;20432;-42
2021/04/14 00:58:53;;;;;;;8.40;6.40;;;0.60;91.60;;;;;;5078708;28;20494;-42
2021/04/14 01:01:18;;;;;;;8.80;7.07;;;0.60;91.60;;;;;;5078433;28;20472;-42
2021/04/14 01:03:44;;;;;;;6.93;6.10;;;0.60;91.60;;;;;;5078784;28;20419;-43
2021/04/14 01:06:17;;;;;;;6.57;5.87;;;0.60;91.70;;;;;;5078169;28;20189;-42
2021/04/14 01:08:44;;;;;;;9.50;6.53;;;0.60;91.70;;;;;;5078284;28;20415;-42
2021/04/14 01:11:10;;;;;;;10.53;6.67;;;0.60;91.70;;;;;;5078671;28;20416;-41
2021/04/14 01:13:36;;;;;;;8.00;6.63;;;0.50;91.60;;;;;;5060815;28;20434;-36
2021/04/14 01:16:03;;;;;;;7.23;6.50;;;0.50;91.70;;;;;;5077622;28;20562;-41
2021/04/14 01:18:32;;;;;;;8.93;7.40;;;0.50;91.60;;;;;;5078462;28;20416;-42
2021/04/14 01:21:00;;;;;;;6.40;5.80;;;0.50;91.60;;;;;;5078245;28;20427;-41
2021/04/14 01:23:29;;;;;;;8.63;6.03;;;0.40;91.60;;;;;;5078713;28;20423;-41
2021/04/14 01:25:55;;;;;;;7.83;6.60;;;0.40;91.70;;;;;;5078133;28;20427;-41
2021/04/14 01:28:31;;;;;;;6.97;6.30;;;0.40;91.80;;;;;;5078301;28;20455;-40
2021/04/14 01:30:58;;;;;;;6.73;6.00;;;0.40;92.00;;;;;;5078498;28;20442;-41
2021/04/14 01:33:27;;;;;;;7.10;6.30;;;0.40;92.00;;;;;;5078354;28;20453;-40
2021/04/14 01:35:53;;;;;;;10.17;6.60;;;0.40;91.90;;;;;;5078187;28;20423;-42
2021/04/14 01:38:19;;;;;;;8.17;6.57;;;0.40;91.90;;;;;;5078238;28;20443;-42
2021/04/14 01:40:45;;;;;;;10.90;6.97;;;0.30;91.90;;;;;;5078524;28;20192;-40
2021/04/14 01:43:11;;;;;;;9.57;6.97;;;0.30;91.90;;;;;;5077493;28;20241;-38
2021/04/14 01:45:47;;;;;;;8.20;6.37;;;0.30;92.00;;;;;;5060860;28;20430;-42
2021/04/14 01:48:14;;;;;;;8.27;7.33;;;0.20;92.10;;;;;;5077823;28;20721;-42
2021/04/14 01:50:40;;;;;;;8.30;6.30;;;0.10;92.20;;;;;;5077802;28;20435;-41
2021/04/14 01:53:09;;;;;;;8.97;6.37;;;0.10;92.30;;;;;;5078054;28;20415;-41
2021/04/14 01:55:35;;;;;;;6.40;5.80;;;0.10;92.40;;;;;;5060334;28;20817;-40
2021/04/14 01:58:01;;;;;;;7.43;5.53;;;0.10;92.40;;;;;;5059680;28;20846;-40
2021/04/14 02:00:43;;;;;;;6.97;6.27;;;0.10;92.30;;;;;;5077649;28;20513;-41
2021/04/14 02:03:09;;;;;;;8.90;6.20;;;0.10;92.30;;;;;;5077387;28;20423;-42
2021/04/14 02:05:35;;;;;;;9.43;6.97;;;0.10;92.40;;;;;;5077626;28;20431;-39
2021/04/14 02:08:02;;;;;;;7.63;6.67;;;0.10;92.40;;;;;;5077523;28;20470;-42
2021/04/14 02:10:31;;;;;;;8.67;6.20;;;0.00;92.50;;;;;;5077616;28;20178;-41
2021/04/14 02:12:57;;;;;;;8.33;7.17;;;0.00;92.50;;;;;;5077785;28;20412;-42
2021/04/14 02:15:27;;;;;;;7.43;6.23;;;0.00;92.50;;;;;;5077716;28;20553;-41
2021/04/14 02:17:53;;;;;;;9.93;5.90;;;0.00;92.50;;;;;;5077881;28;20434;-40
2021/04/14 02:20:19;;;;;;;6.97;5.80;;;0.00;92.40;;;;;;5059651;28;20438;-41
2021/04/14 02:22:45;;;;;;;8.83;6.40;;;0.00;92.30;;;;;;5077661;28;20902;-41
2021/04/14 02:25:12;;;;;;;13.63;6.60;;;0.00;92.40;;;;;;5077788;28;20503;-42
2021/04/14 02:27:39;;;;;;;6.63;5.93;;;0.00;92.50;;;;;;5077503;28;20213;-41
2021/04/14 02:30:11;;;;;;;8.83;6.87;;;0.00;92.50;;;;;;5077507;28;20902;-40
2021/04/14 02:32:37;;;;;;;8.20;7.40;;;0.00;92.50;;;;;;5077356;28;20419;-42
2021/04/14 02:35:05;;;;;;;7.97;7.10;;;-0.10;92.40;;;;;;5058923;28;20578;-40
2021/04/14 02:37:30;;;;;;;9.37;6.67;;;-0.10;92.50;;;;;;5059504;28;20460;-42
2021/04/14 02:39:56;;;;;;;8.57;6.37;;;-0.10;92.60;;;;;;5076982;28;20457;-39
2021/04/14 02:42:22;;;;;;;7.00;6.30;;;-0.20;92.50;;;;;;5077041;28;20208;-40
2021/04/14 02:44:48;;;;;;;9.80;5.93;;;-0.20;92.60;;;;;;5082075;28;20494;-42
2021/04/14 02:47:13;;;;;;;7.13;6.40;;;-0.20;92.70;;;;;;5079596;28;20270;-40
2021/04/14 02:49:39;;;;;;;9.07;6.97;;;-0.20;92.70;;;;;;5097654;28;20522;-41
2021/04/14 02:52:05;;;;;;;9.30;6.67;;;-0.20;92.70;;;;;;5098058;28;20177;-41
2021/04/14 02:54:31;;;;;;;9.40;6.87;;;-0.20;92.70;;;;;;5097069;28;20263;-42
2021/04/14 02:56:56;;;;;;;11.07;6.30;;;-0.30;92.70;;;;;;5099903;28;20434;-41
2021/04/14 02:59:23;;;;;;;10.67;7.50;;;-0.30;92.80;;;;;;5101009;28;20446;-42
2021/04/14 03:01:50;;;;;;;7.93;6.80;;;-0.30;92.80;;;;;;5066171;28;20558;-42
2021/04/14 03:04:17;;;;;;;7.80;6.50;;;-0.30;92.80;;;;;;5101298;28;20453;-40
2021/04/14 03:06:43;;;;;;;9.93;6.80;;;-0.30;92.90;;;;;;5100687;28;20495;-40
2021/04/14 03:09:08;;;;;;;7.10;6.27;;;-0.30;92.90;;;;;;5101069;28;20752;-40
2021/04/14 03:11:34;;;;;;;6.43;5.40;;;-0.30;92.80;;;;;;5083064;28;20766;-42
2021/04/14 03:14:00;;;;;;;7.30;5.60;;;-0.30;92.80;;;;;;5101058;28;20199;-39
2021/04/14 03:16:26;;;;;;;6.00;5.07;;;-0.30;92.80;;;;;;5101026;28;20531;-41
2021/04/14 03:18:52;;;;;;;9.17;6.53;;;-0.30;92.80;;;;;;5101122;28;20426;-41
2021/04/14 03:21:20;;;;;;;8.60;5.60;;;-0.40;92.80;;;;;;5099851;28;20196;-42
2021/04/14 03:23:46;;;;;;;5.40;4.90;;;-0.40;92.80;;;;;;5100386;28;20951;-41
2021/04/14 03:26:12;;;;;;;6.90;5.47;;;-0.40;92.80;;;;;;5100855;28;20797;-40
2021/04/14 03:28:37;;;;;;;8.17;5.50;;;-0.50;92.80;;;;;;5100593;28;20489;-41
2021/04/14 03:31:04;;;;;;;8.73;5.90;;;-0.50;92.80;;;;;;5100488;28;20181;-40
2021/04/14 03:33:30;;;;;;;6.60;5.57;;;-0.50;92.80;;;;;;5100501;28;20180;-42
2021/04/14 03:35:56;;;;;;;9.13;6.43;;;-0.50;92.90;;;;;;5100353;28;20434;-42
2021/04/14 03:38:22;;;;;;;6.70;5.20;;;-0.50;93.30;;;;;;5100828;28;20832;-40
2021/04/14 03:40:48;;;;;;;10.37;6.10;;;-0.50;93.00;;;;;;5100277;28;20430;-41
2021/04/14 03:43:14;;;;;;;7.63;5.20;;;-0.50;93.00;;;;;;5100244;28;20188;-42
2021/04/14 03:45:43;;;;;;;6.23;4.90;;;-0.50;93.00;;;;;;5100073;28;20699;-42
2021/04/14 03:48:09;;;;;;;7.60;4.63;;;-0.60;92.90;;;;;;5099587;28;20515;-40
2021/04/14 03:50:35;;;;;;;5.70;5.13;;;-0.60;92.80;;;;;;5100607;28;20917;-41
2021/04/14 03:53:26;;;;;;;11.87;5.23;;;-0.60;92.90;;;;;;5081768;28;20755;-40
2021/04/14 03:55:56;;;;;;;6.23;5.50;;;-0.60;92.90;;;;;;5100440;28;20429;-41
2021/04/14 03:58:23;;;;;;;6.90;5.30;;;-0.70;92.90;;;;;;5100560;28;20937;-42
2021/04/14 04:00:53;;;;;;;5.73;5.17;;;-0.70;92.90;;;;;;5099524;28;20422;-41
2021/04/14 04:03:20;;;;;;;6.70;5.03;;;-0.70;92.90;;;;;;5098972;28;20462;-40
2021/04/14 04:05:46;;;;;;;6.47;4.97;;;-0.70;93.00;;;;;;5098682;28;20535;-41
2021/04/14 04:08:13;;;;;;;7.60;5.03;;;-0.70;93.00;;;;;;5080081;28;20669;-40
2021/04/14 04:10:39;;;;;;;7.00;5.77;;;-0.70;93.00;;;;;;5097673;28;20700;-42
2021/04/14 04:13:05;;;;;;;7.33;5.40;;;-0.70;93.10;;;;;;5097861;28;20452;-42
2021/04/14 04:15:31;;;;;;;7.00;6.20;;;-0.80;93.10;;;;;;5099244;28;20743;-41
2021/04/14 04:17:57;;;;;;;10.90;6.40;;;-0.80;93.10;;;;;;5099383;28;20505;-40
2021/04/14 04:20:23;;;;;;;8.87;5.80;;;-0.80;93.20;;;;;;5098820;28;20728;-39
2021/04/14 04:22:49;;;;;;;8.17;6.47;;;-0.80;93.10;;;;;;5098806;28;20295;-42
2021/04/14 04:25:15;;;;;;;8.13;5.80;;;-0.80;93.10;;;;;;5098662;28;20524;-41
2021/04/14 04:27:41;;;;;;;6.10;5.23;;;-0.80;93.30;;;;;;5098619;28;20810;-38
2021/04/14 04:30:08;;;;;;;7.10;5.47;;;-0.80;93.30;;;;;;5099257;28;20426;-42
2021/04/14 04:32:34;;;;;;;7.77;6.10;;;-0.80;93.30;;;;;;5098010;28;20430;-41
2021/04/14 04:35:00;;;;;;;6.07;5.47;;;-0.80;93.40;;;;;;5097937;28;20432;-40
2021/04/14 04:37:26;;;;;;;7.43;5.30;;;-0.80;93.30;;;;;;5098623;28;20415;-41
2021/04/14 04:39:51;;;;;;;9.70;5.10;;;-0.80;93.30;;;;;;5097572;28;20180;-41
2021/04/14 04:42:17;;;;;;;7.20;5.90;;;-0.80;93.20;;;;;;5097080;28;20422;-42
2021/04/14 04:44:43;;;;;;;7.50;5.03;;;-0.70;93.30;;;;;;5096355;28;20176;-40
2021/04/14 04:47:09;;;;;;;7.80;4.80;;;-0.70;93.40;;;;;;5097416;28;20531;-41
2021/04/14 04:49:35;;;;;;;6.83;5.50;;;-0.70;93.40;;;;;;5078210;28;20187;-42
2021/04/14 04:52:01;;;;;;;9.50;5.13;;;-0.70;93.40;;;;;;5098106;28;20434;-42
2021/04/14 04:54:26;;;;;;;7.07;5.40;;;-0.70;93.30;;;;;;5099218;28;20191;-40
2021/04/14 04:56:52;;;;;;;6.67;6.03;;;-0.70;93.20;;;;;;5098626;28;20190;-40
2021/04/14 04:59:18;;;;;;;7.20;5.73;;;-0.70;93.20;;;;;;5098305;28;20188;-41
2021/04/14 05:01:44;;;;;;;5.83;5.23;;;-0.70;93.40;;;;;;5098367;28;20418;-40
2021/04/14 05:04:13;;;;;;;9.57;5.90;;;-0.60;93.10;;;;;;5080579;28;20466;-41
2021/04/14 05:06:39;;;;;;;6.37;5.30;;;-0.60;93.00;;;;;;5098387;28;20657;-39
2021/04/14 05:09:05;;;;;;;7.30;6.20;;;-0.50;92.90;;;;;;5097926;28;20442;-40
2021/04/14 05:11:31;;;;;;;7.37;6.10;;;-0.50;92.90;;;;;;5098862;28;20415;-41
2021/04/14 05:13:57;;;;;;;8.50;6.60;;;-0.40;92.90;;;;;;5097364;28;20472;-42
2021/04/14 05:16:24;;;;;;;8.03;5.73;;;-0.40;92.80;;;;;;5096895;28;20240;-42
2021/04/14 05:18:49;;;;;;;7.60;5.63;;;-0.30;92.80;;;;;;5095589;28;20454;-40
2021/04/14 05:21:16;;;;;;;9.13;6.50;;;-0.30;93.00;;;;;;5096498;28;20446;-41
2021/04/14 05:23:41;;;;;;;11.77;6.60;;;-0.20;92.80;;;;;;5096277;28;20203;-40
2021/04/14 05:26:07;;;;;;;6.40;5.70;;;-0.10;92.70;;;;;;5096931;28;20421;-41
2021/04/14 05:28:33;;;;;;;6.83;5.23;;;-0.10;92.60;;;;;;5097012;28;20168;-41
2021/04/14 05:30:59;;;;;;;7.10;6.07;;;0.00;92.60;;;;;;5097969;28;20184;-39
2021/04/14 05:33:25;;;;;;;11.53;6.13;;;0.00;92.60;;;;;;5097312;28;20427;-39
2021/04/14 05:35:53;;;;;;;10.10;6.60;;;0.00;92.80;;;;;;5097408;28;20238;-42
2021/04/14 05:38:21;;;;;;;8.17;6.53;;;0.10;93.00;;;;;;5096859;28;20832;-40
2021/04/14 05:40:47;;;;;;;7.23;6.10;;;0.20;93.00;;;;;;5096837;28;20454;-40
2021/04/14 05:43:26;;;;;;;7.80;7.00;;;0.30;92.90;;;;;;5095928;28;20462;-43
2021/04/14 05:46:04;;;;;;;8.30;7.50;;;0.40;92.70;;;;;;5059970;28;20496;-42
2021/04/14 05:48:30;;;;;;;11.57;6.83;;;0.50;92.50;;;;;;5095848;28;20499;-43
2021/04/14 05:50:58;;;;;;;10.90;6.47;;;0.60;92.30;;;;;;5096882;28;20501;-41
2021/04/14 05:53:27;;;;;;;10.13;6.93;;;0.70;92.10;;;;;;5097219;28;20412;-42
2021/04/14 05:55:54;;;;;;;12.33;6.20;;;0.90;92.10;;;;;;5098244;28;20504;-43
2021/04/14 05:58:19;;;;;;;9.83;6.30;;;1.00;91.90;;;;;;5079302;28;20426;-42
2021/04/14 06:00:45;;;;;;;10.03;6.97;;;1.10;91.80;;;;;;5079503;28;20437;-42
2021/04/14 06:03:11;;;;;;;9.10;7.20;;;1.30;91.70;;;;;;5079441;28;20180;-39
2021/04/14 06:05:37;;;;;;;10.80;8.10;;;1.40;91.60;;;;;;5097004;28;20172;-41
2021/04/14 06:08:03;;;;;;;9.73;7.57;;;1.60;91.40;;;;;;5096971;28;20462;-41
2021/04/14 06:10:29;;;;;;;11.07;6.93;;;1.80;90.80;;;;;;5096465;28;20316;-41
2021/04/14 06:12:55;;;;;;;11.73;7.20;;;1.90;90.30;;;;;;5097296;28;20872;-40
2021/04/14 06:15:30;;;;;;;10.50;7.70;;;1.80;90.30;;;;;;5078434;28;20466;-36
2021/04/14 06:17:57;;;;;;;12.33;7.00;;;2.00;90.40;;;;;;5096500;28;20429;-42
2021/04/14 06:20:25;;;;;;;8.57;7.00;;;2.30;90.30;;;;;;5096347;28;20851;-42
2021/04/14 06:22:51;;;;;;;10.23;7.27;;;2.50;90.00;;;;;;5077590;28;20425;-41
2021/04/14 06:25:24;;;;;;;9.17;6.77;;;2.60;88.40;;;;;;5096332;28;20455;-41
2021/04/14 06:28:11;;;;;;;8.13;6.60;;;2.80;87.60;;;;;;5097182;28;20472;-42
2021/04/14 06:30:38;;;;;;;8.10;6.33;;;2.80;87.00;;;;;;5096608;28;20434;-42
2021/04/14 06:33:08;;;;;;;8.47;7.30;;;3.10;86.30;;;;;;5100875;28;20429;-40
2021/04/14 06:35:33;;;;;;;8.13;6.17;;;3.30;86.20;;;;;;5101028;28;20426;-42
2021/04/14 06:38:00;;;;;;;11.00;7.80;;;3.60;85.80;;;;;;5101443;28;20433;-41
2021/04/14 06:43:20;;;;;;;9.97;6.63;;;4.10;82.80;;;;;;5081079;28;20780;-42
2021/04/14 06:45:50;;;;;;;9.23;5.67;;;4.20;82.40;;;;;;5097343;28;20439;-42
2021/04/14 06:48:45;;;;;;;11.83;5.80;;;4.00;82.10;;;;;;5080352;28;20461;-41
2021/04/14 06:51:23;;;;;;;9.60;6.03;;;4.20;80.90;;;;;;5080853;28;20479;-42
2021/04/14 06:54:18;;;;;;;6.17;5.50;;;4.30;81.00;;;;;;5079200;28;20418;-37
2021/04/14 06:56:46;;;;;;;12.13;6.07;;;4.40;80.10;;;;;;5063558;28;20433;-41
2021/04/14 06:59:18;;;;;;;7.27;5.97;;;4.60;80.30;;;;;;5082325;28;20430;-40
2021/04/14 07:01:49;;;;;;;9.00;5.57;;;4.60;80.10;;;;;;5080982;28;20831;-41
2021/04/14 07:04:33;;;;;;;5.27;4.60;;;5.10;80.80;;;;;;5098518;28;20434;-42
2021/04/14 07:07:02;;;;;;;12.17;5.57;;;5.70;79.40;;;;;;5099112;28;20895;-43
2021/04/14 07:09:35;;;;;;;9.93;5.53;;;6.10;77.90;;;;;;5080827;28;20426;-42
2021/04/14 07:12:08;;;;;;;8.17;6.13;;;6.50;76.90;;;;;;5098574;28;20529;-41
2021/04/14 07:14:34;;;;;;;9.77;5.03;;;6.40;75.10;;;;;;5081718;28;20528;-41
2021/04/14 07:17:12;;;;;;;6.93;5.37;;;6.80;74.30;;;;;;5097597;28;20821;-42
2021/04/14 07:20:14;;;;;;;6.67;4.87;;;7.00;73.00;;;;;;5080207;28;20876;-41
2021/04/14 07:23:07;;;;;;;8.60;5.50;;;6.90;70.00;;;;;;5098463;28;20467;-42
2021/04/14 07:25:42;;;;;;;9.83;5.73;;;6.60;69.90;;;;;;5099827;28;20423;-42
2021/04/14 07:29:04;;;;;;;9.73;5.87;;;6.20;71.20;;;;;;5097630;28;20476;-42
2021/04/14 07:31:46;;;;;;;8.43;5.33;;;6.40;71.90;;;;;;5065056;28;20479;-41
2021/04/14 07:34:32;;;;;;;10.77;5.60;;;6.20;72.30;;;;;;5080464;28;20432;-39
2021/04/14 07:37:01;;;;;;;7.03;5.20;;;6.20;71.50;;;;;;5098757;28;20786;-40
2021/04/14 07:39:42;;;;;;;5.93;4.50;;;6.50;72.50;;;;;;5079466;28;20545;-41
2021/04/14 07:42:14;;;;;;;7.40;4.63;;;7.00;72.80;;;;;;5079059;28;20510;-42
2021/04/14 07:45:05;;;;;;;7.90;5.43;;;7.60;69.10;;;;;;5078802;28;20781;-41
2021/04/14 07:47:32;;;;;;;5.73;4.87;;;7.90;67.30;;;;;;5097176;28;20754;-42
2021/04/14 07:49:58;;;;;;;7.33;4.90;;;8.20;66.60;;;;;;5082126;28;20418;-40
2021/04/14 07:52:30;;;;;;;5.23;4.00;;;8.60;66.60;;;;;;5100060;28;20543;-42
2021/04/14 07:54:58;;;;;;;7.57;2.90;;;9.00;63.10;;;;;;5099827;28;20173;-40
2021/04/14 07:57:36;;;;;;;4.87;3.43;;;9.60;61.40;;;;;;5099387;28;20453;-43
2021/04/14 08:00:15;;;;;;;4.83;2.97;;;10.30;57.70;;;;;;5081810;28;20491;-42
2021/04/14 08:02:41;;;;;;;4.40;2.80;;;11.10;56.50;;;;;;5098811;28;20410;-42
2021/04/14 08:05:21;;;;;;;4.80;2.57;;;12.10;65.40;;;;;;5098735;28;20513;-40
2021/04/14 08:07:48;;;;;;;4.73;2.80;;;13.10;58.70;;;;;;5080194;28;20220;-41
2021/04/14 08:10:18;;;;;;;4.93;3.20;;;14.00;57.90;;;;;;5096856;28;20441;-41
2021/04/14 08:13:00;;;;;;;3.53;2.90;;;14.70;49.10;;;;;;5095735;28;20422;-42
2021/04/14 08:15:29;;;;;;;4.30;2.93;;;15.40;47.20;;;;;;5096584;28;20496;-42
2021/04/14 08:18:09;;;;;;;3.67;3.30;;;14.20;42.10;;;;;;5077143;28;20423;-42
2021/04/14 08:20:36;;;;;;;6.23;4.80;;;15.20;41.80;;;;;;5076316;28;20427;-41
2021/04/14 08:23:12;;;;;;;4.97;4.00;;;15.30;41.00;;;;;;5078425;28;20481;-41
2021/04/14 08:25:46;;;;;;;3.50;2.93;;;14.80;40.00;;;;;;5077561;28;20436;-41
2021/04/14 08:28:40;;;;;;;3.53;3.20;;;14.40;41.00;;;;;;5077840;28;20463;-43
2021/04/14 08:31:17;;;;;;;4.43;4.03;;;14.90;41.00;;;;;;5076399;28;20411;-42
2021/04/14 08:33:43;;;;;;;4.30;3.50;;;15.60;40.00;;;;;;5077638;28;20399;-43
2021/04/14 08:36:30;;;;;;;6.63;4.03;;;15.90;39.60;;;;;;5061271;28;20414;-41
2021/04/14 08:38:56;;;;;;;6.77;4.00;;;16.80;37.70;;;;;;5059202;28;20403;-41
2021/04/14 08:41:31;;;;;;;4.67;3.50;;;16.80;37.90;;;;;;5077187;28;20455;-41
2021/04/14 08:44:13;;;;;;;4.87;4.00;;;17.50;37.50;;;;;;5058724;28;20415;-43
2021/04/14 08:46:40;;;;;;;3.80;3.20;;;17.50;36.70;;;;;;5075749;28;20451;-43
2021/04/14 08:49:15;;;;;;;4.13;3.00;;;17.80;36.20;;;;;;5075466;28;20427;-41
2021/04/14 08:51:44;;;;;;;4.87;3.67;;;18.00;34.30;;;;;;5075596;28;20415;-42
2021/04/14 08:54:16;;;;;;;5.87;3.80;;;18.20;33.70;;;;;;5057205;28;20469;-40
2021/04/14 08:56:43;;;;;;;5.27;3.73;;;17.80;32.10;;;;;;5077097;28;20433;-43
2021/04/14 08:59:10;;;;;;;5.27;4.23;;;17.20;32.70;;;;;;5076729;28;20458;-41
2021/04/14 09:01:36;;;;;;;6.33;4.30;;;16.40;34.20;;;;;;5059963;28;20415;-43
2021/04/14 09:04:06;;;;;;;4.63;4.00;;;15.90;35.00;;;;;;5077686;28;20447;-42
2021/04/14 09:06:32;;;;;;;3.90;3.20;;;16.10;35.50;;;;;;5060533;28;20447;-41
2021/04/14 09:09:02;;;;;;;5.53;3.70;;;16.10;35.10;;;;;;5077600;28;20416;-42
2021/04/14 09:11:30;;;;;;;7.27;3.60;;;16.60;35.00;;;;;;5078736;28;20736;-42
2021/04/14 09:14:19;;;;;;;4.10;3.27;;;17.30;33.60;;;;;;5060285;28;20845;-43
2021/04/14 09:16:59;;;;;;;4.10;3.70;;;17.80;33.10;;;;;;5086590;28;20458;-43
2021/04/14 09:19:37;;;;;;;4.60;3.47;;;18.40;33.30;;;;;;5079597;28;20521;-41
2021/04/14 09:22:25;;;;;;;5.20;3.77;;;19.10;31.20;;;;;;5096650;28;20698;-43
2021/04/14 09:24:55;;;;;;;4.93;3.77;;;19.00;31.50;;;;;;5097675;28;20422;-43
2021/04/14 09:27:36;;;;;;;4.93;3.40;;;19.00;31.10;;;;;;5080291;28;20476;-41
2021/04/14 09:30:26;;;;;;;6.90;3.80;;;18.70;30.20;;;;;;5095968;28;20433;-43
2021/04/14 09:32:55;;;;;;;7.90;4.03;;;17.80;29.90;;;;;;5096337;28;20448;-42
2021/04/14 09:35:29;;;;;;;4.90;4.03;;;16.70;31.00;;;;;;5097133;28;20402;-43
2021/04/14 09:38:13;;;;;;;5.23;3.50;;;16.00;30.90;;;;;;5096779;28;20430;-42
2021/04/14 09:40:39;;;;;;;5.30;3.10;;;15.50;31.70;;;;;;5095968;28;21001;-42
2021/04/14 09:43:27;;;;;;;5.17;2.93;;;15.50;31.80;;;;;;5095423;28;20492;-43
2021/04/14 09:46:10;;;;;;;3.37;2.70;;;17.00;31.30;;;;;;5096131;28;20402;-42
2021/04/14 09:48:48;;;;;;;4.70;3.20;;;17.60;29.80;;;;;;5078900;28;20682;-43
2021/04/14 09:51:31;;;;;;;5.73;3.50;;;16.40;29.80;;;;;;5096750;28;20892;-43
2021/04/14 09:54:05;;;;;;;3.20;2.90;;;15.80;29.60;;;;;;5097339;28;20949;-43
2021/04/14 09:56:33;;;;;;;7.40;4.17;;;14.90;30.30;;;;;;5079823;28;20422;-42
2021/04/14 09:59:09;;;;;;;7.30;4.70;;;14.20;31.90;;;;;;5079139;28;20414;-40
2021/04/14 10:01:37;;;;;;;5.23;4.47;;;13.30;34.40;;;;;;5095575;28;20429;-43
2021/04/14 10:04:17;;;;;;;4.40;4.00;;;12.40;36.20;;;;;;5095601;28;20403;-41
2021/04/14 10:06:44;;;;;;;8.30;4.50;;;11.50;36.90;;;;;;5096314;28;20664;-41
2021/04/14 10:09:24;;;;;;;11.70;4.63;;;10.80;37.70;;;;;;5079766;28;20418;-43
2021/04/14 10:11:51;;;;;;;4.60;3.73;;;10.20;38.50;;;;;;5079168;28;20456;-43
2021/04/14 10:14:21;;;;;;;6.10;4.10;;;9.70;40.10;;;;;;5063298;28;20488;-43
2021/04/14 10:16:48;;;;;;;4.07;3.60;;;9.50;40.80;;;;;;5097737;28;20478;-42
2021/04/14 10:19:35;;;;;;;6.50;4.00;;;9.30;41.70;;;;;;5097285;28;20423;-42
2021/04/14 10:22:15;;;;;;;8.10;5.13;;;9.10;41.40;;;;;;5079790;28;20924;-41
2021/04/14 10:24:42;;;;;;;5.73;3.90;;;9.00;41.20;;;;;;5096572;28;20482;-43
2021/04/14 10:27:17;;;;;;;6.80;3.97;;;8.90;41.40;;;;;;5096506;28;20576;-44
2021/04/14 10:29:44;;;;;;;8.53;4.30;;;8.60;42.00;;;;;;5097243;28;20509;-41
2021/04/14 10:32:15;;;;;;;7.07;3.50;;;8.60;42.80;;;;;;5095524;28;20545;-42
2021/04/14 10:34:45;;;;;;;4.87;3.73;;;8.40;42.80;;;;;;5097777;28;20414;-44
2021/04/14 10:37:24;;;;;;;6.37;5.13;;;8.70;43.10;;;;;;5079717;28;20438;-43
2021/04/14 10:39:51;;;;;;;3.80;3.40;;;8.80;42.40;;;;;;5078546;28;20470;-43
2021/04/14 10:42:24;;;;;;;5.00;3.60;;;8.80;41.70;;;;;;5094375;28;20729;-43
2021/04/14 10:44:53;;;;;;;4.27;3.50;;;8.90;41.80;;;;;;5094433;28;20964;-42
2021/04/14 10:47:29;;;;;;;4.50;3.23;;;8.70;41.10;;;;;;5095630;28;20940;-43
2021/04/14 10:50:24;;;;;;;4.30;3.03;;;8.90;40.90;;;;;;5060551;28;20425;-43
2021/04/14 10:53:00;;;;;;;8.27;3.80;;;9.00;41.00;;;;;;5095114;28;20439;-43
2021/04/14 10:55:28;;;;;;;4.00;3.60;;;9.30;40.70;;;;;;5078483;28;20668;-43
2021/04/14 10:58:00;;;;;;;4.00;3.60;;;9.50;40.50;;;;;;5078116;28;20438;-42
2021/04/14 11:00:30;;;;;;;3.70;3.30;;;9.70;40.70;;;;;;5079671;28;20496;-43
2021/04/14 11:03:00;;;;;;;4.20;3.73;;;9.90;40.20;;;;;;5096541;28;20418;-43
2021/04/14 11:05:26;;;;;;;4.57;3.03;;;10.20;38.20;;;;;;5077799;28;20712;-43
2021/04/14 11:07:52;;;;;;;6.00;3.40;;;10.70;38.00;;;;;;5096391;28;20462;-44
2021/04/14 11:10:27;;;;;;;3.97;3.47;;;11.00;37.30;;;;;;5079297;28;20417;-42
2021/04/14 11:12:54;;;;;;;6.20;3.13;;;11.60;38.10;;;;;;5061042;28;20445;-44
2021/04/14 11:15:23;;;;;;;5.50;3.33;;;12.10;36.90;;;;;;5094826;28;20438;-42
2021/04/14 11:17:55;;;;;;;3.47;3.17;;;12.50;35.60;;;;;;5079795;28;20478;-43
2021/04/14 11:20:24;;;;;;;4.60;3.87;;;13.00;35.40;;;;;;5098893;28;20418;-44
2021/04/14 11:22:54;;;;;;;3.73;3.30;;;13.00;34.60;;;;;;5081586;28;20434;-42
2021/04/14 11:25:32;;;;;;;6.00;4.20;;;13.10;34.30;;;;;;5100300;28;20406;-43
2021/04/14 11:28:10;;;;;;;4.87;3.37;;;12.80;34.30;;;;;;5100247;28;20722;-43
2021/04/14 11:30:49;;;;;;;8.50;3.77;;;12.60;34.90;;;;;;5097582;28;20406;-43
2021/04/14 11:33:16;;;;;;;5.70;4.40;;;12.70;34.80;;;;;;5080395;28;20515;-42
2021/04/14 11:35:45;;;;;;;6.10;3.47;;;12.60;34.00;;;;;;5081322;28;20421;-43
2021/04/14 11:38:27;;;;;;;4.77;4.23;;;12.20;35.90;;;;;;5098876;28;20755;-43
2021/04/14 11:40:53;;;;;;;3.73;3.47;;;12.00;37.60;;;;;;5097983;28;20413;-43
2021/04/14 11:43:31;;;;;;;4.33;3.33;;;11.60;43.00;;;;;;5097043;28;20526;-42
2021/04/14 11:46:01;;;;;;;3.40;3.10;;;13.00;47.60;;;;;;5090438;28;20425;-44
2021/04/14 11:48:33;;;;;;;3.10;2.67;;;14.90;43.70;;;;;;5098816;28;20457;-43
2021/04/14 11:51:11;;;;;;;4.90;3.10;;;16.60;38.80;;;;;;5100942;28;20414;-41
2021/04/14 11:53:55;;;;;;;4.43;3.20;;;16.90;37.50;;;;;;5098873;28;20463;-41
2021/04/14 11:56:25;;;;;;;3.47;3.17;;;16.30;36.00;;;;;;5098577;28;20434;-41
2021/04/14 11:58:54;;;;;;;4.27;3.87;;;15.60;32.30;;;;;;5081928;28;20419;-42
2021/04/14 12:01:25;;;;;;;3.90;3.13;;;14.80;31.40;;;;;;5081583;28;20481;-40
2021/04/14 12:03:53;;;;;;;5.50;3.90;;;13.80;31.80;;;;;;5098950;28;20692;-42
2021/04/14 12:06:22;;;;;;;3.50;3.17;;;12.90;32.70;;;;;;5081001;28;20538;-42
2021/04/14 12:08:48;;;;;;;3.70;3.40;;;12.60;33.20;;;;;;5098272;28;20425;-40
2021/04/14 12:11:18;;;;;;;4.93;3.40;;;12.10;33.80;;;;;;5098079;28;20419;-40
2021/04/14 12:13:44;;;;;;;3.87;3.10;;;12.10;34.00;;;;;;5099282;28;20406;-42
2021/04/14 12:16:09;;;;;;;3.83;3.23;;;12.30;34.30;;;;;;5097142;28;20983;-41
2021/04/14 12:18:35;;;;;;;3.27;2.97;;;12.30;34.00;;;;;;5097019;28;20509;-40
2021/04/14 12:21:01;;;;;;;2.97;2.77;;;12.50;31.30;;;;;;5063606;28;20212;-41
2021/04/14 12:23:27;;;;;;;3.50;3.30;;;12.30;31.00;;;;;;5080394;28;20278;-41
2021/04/14 12:25:53;;;;;;;5.27;2.93;;;12.20;30.50;;;;;;5064346;28;20500;-42
2021/04/14 12:28:19;;;;;;;3.90;3.20;;;11.90;30.90;;;;;;5096875;28;20204;-43
2021/04/14 12:30:45;;;;;;;3.27;2.97;;;11.90;31.10;;;;;;5098647;28;20562;-42
2021/04/14 12:33:10;;;;;;;4.13;3.20;;;11.80;30.30;;;;;;5099418;28;20554;-42
2021/04/14 12:35:36;;;;;;;4.53;3.70;;;11.70;31.50;;;;;;5078205;28;20429;-42
2021/04/14 12:38:04;;;;;;;5.60;3.60;;;11.90;32.40;;;;;;5076610;28;20185;-42
2021/04/14 12:40:31;;;;;;;6.33;3.73;;;11.10;34.70;;;;;;5077117;28;20318;-43
2021/04/14 12:42:56;;;;;;;5.37;3.70;;;11.10;39.50;;;;;;5076428;28;20515;-43
2021/04/14 12:45:29;;;;;;;4.27;3.87;;;10.40;42.30;;;;;;5077356;28;20411;-43
2021/04/14 12:47:54;;;;;;;4.97;4.47;;;10.00;43.30;;;;;;5078265;28;20236;-43
2021/04/14 12:50:20;;;;;;;6.13;4.10;;;9.80;44.90;;;;;;5078103;28;20830;-43
2021/04/14 12:52:51;;;;;;;5.00;3.87;;;9.60;45.50;;;;;;5075333;28;20174;-41
2021/04/14 12:55:23;;;;;;;5.03;4.53;;;9.50;45.70;;;;;;5075052;28;20426;-41
2021/04/14 12:57:49;;;;;;;5.50;3.93;;;9.40;46.40;;;;;;5057772;28;20450;-41
2021/04/14 13:00:21;;;;;;;3.90;3.60;;;9.20;47.80;;;;;;5076583;28;20845;-41
2021/04/14 13:02:57;;;;;;;7.77;4.53;;;8.30;49.50;;;;;;5058233;28;20200;-41
2021/04/14 13:05:47;;;;;;;5.03;4.23;;;7.10;52.10;;;;;;5077240;28;20411;-40
2021/04/14 13:08:19;;;;;;;6.87;5.30;;;6.90;57.30;;;;;;5076846;28;20471;-41